Time;durP1;ratioP1;P1;durP2;ratioP2;P2;SDS_P1;SDS_P2;PMS_P1;PMS_P2;Temp;Humidity;BMP_temperature;BMP_pressure;BME280_temperature;BME280_humidity;BME280_pressure;Samples;Min_cycle;Max_cycle;Signal;HPM_P1;HPM_P2
2023/10/14 00:02:12;;;;;;;7.57;3.72;;;;;;;;;;5104487;28;20215;-79
2023/10/14 00:04:40;;;;;;;4.75;3.42;;;;;;;;;;5100727;28;20204;-79
2023/10/14 00:07:09;;;;;;;6.32;4.15;;;;;;;;;;5105858;28;20645;-79
2023/10/14 00:09:43;;;;;;;5.28;3.85;;;;;;;;;;5110584;28;20208;-80
2023/10/14 00:12:14;;;;;;;5.97;4.13;;;;;;;;;;5103708;28;20694;-79
2023/10/14 00:14:43;;;;;;;4.88;3.78;;;;;;;;;;5097907;28;20683;-77
2023/10/14 00:17:18;;;;;;;8.63;4.03;;;;;;;;;;5099238;28;20342;-80
2023/10/14 00:19:55;;;;;;;7.20;4.10;;;;;;;;;;5105006;28;20203;-79
2023/10/14 00:22:26;;;;;;;5.45;4.07;;;;;;;;;;5109192;27;20721;-77
2023/10/14 00:24:54;;;;;;;6.07;3.90;;;;;;;;;;5088560;28;20729;-78
2023/10/14 00:27:23;;;;;;;6.85;3.78;;;;;;;;;;5080422;28;20233;-79
2023/10/14 00:30:05;;;;;;;5.05;3.30;;;;;;;;;;5083104;28;20296;-79
2023/10/14 00:32:33;;;;;;;5.25;3.75;;;;;;;;;;5082210;28;20212;-79
2023/10/14 00:35:03;;;;;;;8.80;3.67;;;;;;;;;;5072542;28;20546;-77
2023/10/14 00:37:34;;;;;;;6.40;3.95;;;;;;;;;;5087628;28;20221;-77
2023/10/14 00:40:10;;;;;;;6.65;4.10;;;;;;;;;;5082136;28;21389;-78
2023/10/14 00:42:38;;;;;;;5.75;4.20;;;;;;;;;;5077879;28;20262;-78
2023/10/14 00:45:11;;;;;;;5.30;4.00;;;;;;;;;;5082476;28;20205;-78
2023/10/14 00:47:44;;;;;;;4.97;4.07;;;;;;;;;;5081596;28;20712;-80
2023/10/14 00:50:33;;;;;;;4.65;3.75;;;;;;;;;;5083722;28;20200;-80
2023/10/14 00:53:05;;;;;;;5.10;3.75;;;;;;;;;;5084764;28;20204;-79
2023/10/14 00:55:54;;;;;;;7.55;3.90;;;;;;;;;;5081595;28;20234;-79
2023/10/14 00:58:28;;;;;;;6.25;4.10;;;;;;;;;;5083635;28;20304;-79
2023/10/14 01:00:58;;;;;;;3.65;3.35;;;;;;;;;;5081927;28;20213;-78
2023/10/14 01:03:26;;;;;;;6.82;4.07;;;;;;;;;;5075532;28;20701;-79
2023/10/14 01:05:56;;;;;;;8.20;3.72;;;;;;;;;;5080266;28;20271;-79
2023/10/14 01:08:25;;;;;;;5.80;3.67;;;;;;;;;;5080777;28;20244;-78
2023/10/14 01:10:52;;;;;;;5.07;3.67;;;;;;;;;;5080547;28;20832;-80
2023/10/14 01:13:22;;;;;;;5.18;3.58;;;;;;;;;;5054758;28;20216;-78
2023/10/14 01:16:00;;;;;;;5.60;3.90;;;;;;;;;;5057931;28;20204;-79
2023/10/14 01:18:28;;;;;;;5.13;4.15;;;;;;;;;;5079997;28;20217;-80
2023/10/14 01:20:57;;;;;;;7.18;3.95;;;;;;;;;;5078110;28;20208;-80
2023/10/14 01:23:26;;;;;;;5.63;3.80;;;;;;;;;;5088195;28;20208;-77
2023/10/14 01:25:53;;;;;;;4.68;3.60;;;;;;;;;;5103270;28;20213;-77
2023/10/14 01:28:21;;;;;;;5.53;4.28;;;;;;;;;;5092646;28;20233;-76
2023/10/14 01:31:07;;;;;;;5.50;3.72;;;;;;;;;;5094161;28;20633;-75
2023/10/14 01:33:36;;;;;;;7.20;4.10;;;;;;;;;;5102693;28;20691;-77
2023/10/14 01:36:04;;;;;;;7.25;4.05;;;;;;;;;;5113032;28;20200;-77
2023/10/14 01:38:31;;;;;;;7.03;4.10;;;;;;;;;;5114143;28;20589;-77
2023/10/14 01:41:03;;;;;;;6.65;4.28;;;;;;;;;;5114028;28;20702;-76
2023/10/14 01:43:31;;;;;;;5.13;4.43;;;;;;;;;;5113797;28;20224;-76
2023/10/14 01:48:30;;;;;;;10.65;4.93;;;;;;;;;;5113699;28;20224;-76
2023/10/14 01:50:58;;;;;;;8.40;5.00;;;;;;;;;;5113747;28;20212;-76
2023/10/14 01:53:27;;;;;;;7.50;5.20;;;;;;;;;;5113524;28;20236;-75
2023/10/14 01:55:57;;;;;;;5.43;4.93;;;;;;;;;;5113739;28;20204;-75
2023/10/14 02:00:56;;;;;;;12.18;5.35;;;;;;;;;;5113164;28;20268;-77
2023/10/14 02:03:24;;;;;;;8.52;5.47;;;;;;;;;;5113285;28;20648;-77
2023/10/14 02:05:51;;;;;;;7.63;5.60;;;;;;;;;;5113703;28;20212;-77
2023/10/14 02:08:22;;;;;;;7.38;5.55;;;;;;;;;;5113280;28;20224;-76
2023/10/14 02:10:50;;;;;;;9.00;5.70;;;;;;;;;;5108869;28;20220;-76
2023/10/14 02:13:18;;;;;;;7.22;5.97;;;;;;;;;;5096318;28;20200;-77
2023/10/14 02:15:46;;;;;;;8.57;5.68;;;;;;;;;;5093814;28;20669;-78
2023/10/14 02:18:16;;;;;;;7.63;5.80;;;;;;;;;;5113184;28;20235;-77
2023/10/14 02:23:49;;;;;;;8.27;6.25;;;;;;;;;;5010005;28;20730;-76
2023/10/14 02:26:22;;;;;;;8.98;6.13;;;;;;;;;;5085447;28;20215;-77
2023/10/14 02:28:52;;;;;;;7.32;6.07;;;;;;;;;;5091366;28;20224;-77
2023/10/14 02:31:29;;;;;;;7.38;6.35;;;;;;;;;;5081433;28;20230;-77
2023/10/14 02:33:59;;;;;;;7.47;6.10;;;;;;;;;;5071499;28;20200;-75
2023/10/14 02:36:29;;;;;;;12.25;6.80;;;;;;;;;;5083788;28;20570;-79
2023/10/14 02:38:57;;;;;;;9.32;5.80;;;;;;;;;;5082828;28;20229;-77
2023/10/14 02:41:32;;;;;;;7.05;5.90;;;;;;;;;;5078876;28;20649;-76
2023/10/14 02:44:44;;;;;;;8.55;5.57;;;;;;;;;;5084794;28;20258;-77
2023/10/14 02:46:54;;;;;;;7.60;5.93;;;;;;;;;;5078607;28;20196;-75
2023/10/14 02:49:25;;;;;;;8.55;6.45;;;;;;;;;;5090234;28;20869;-76
2023/10/14 02:51:52;;;;;;;8.35;5.90;;;;;;;;;;5081463;28;20224;-76
2023/10/14 02:54:33;;;;;;;6.20;5.65;;;;;;;;;;5092075;28;20197;-76
2023/10/14 02:57:12;;;;;;;9.38;5.70;;;;;;;;;;5102252;28;20287;-75
2023/10/14 03:02:15;;;;;;;6.55;5.80;;;;;;;;;;5088319;28;20799;-76
2023/10/14 03:09:51;;;;;;;6.78;5.53;;;;;;;;;;5099575;28;20544;-78
2023/10/14 03:12:19;;;;;;;8.75;5.80;;;;;;;;;;5090467;28;20236;-77
2023/10/14 03:14:48;;;;;;;7.07;5.57;;;;;;;;;;5090157;28;20204;-76
2023/10/14 03:17:25;;;;;;;6.68;6.00;;;;;;;;;;5091386;28;20237;-78
2023/10/14 03:19:53;;;;;;;8.70;6.40;;;;;;;;;;5091626;28;20200;-77
2023/10/14 03:22:25;;;;;;;6.75;5.80;;;;;;;;;;5091772;28;20189;-76
2023/10/14 03:25:02;;;;;;;7.63;6.03;;;;;;;;;;5091709;28;20242;-75
2023/10/14 03:27:32;;;;;;;7.35;5.90;;;;;;;;;;5091708;28;20231;-75
2023/10/14 03:29:59;;;;;;;7.93;5.93;;;;;;;;;;5091344;28;20570;-76
2023/10/14 03:32:32;;;;;;;8.77;6.32;;;;;;;;;;5091182;28;20243;-76
2023/10/14 03:35:10;;;;;;;7.55;5.70;;;;;;;;;;5083074;28;20277;-76
2023/10/14 03:37:40;;;;;;;9.98;6.07;;;;;;;;;;5091602;28;20231;-75
2023/10/14 03:43:05;;;;;;;7.28;5.88;;;;;;;;;;5069921;28;20205;-76
2023/10/14 03:45:33;;;;;;;10.90;6.75;;;;;;;;;;5073468;28;20201;-77
2023/10/14 03:48:08;;;;;;;7.57;5.93;;;;;;;;;;5073739;28;20257;-75
2023/10/14 03:50:38;;;;;;;8.20;6.30;;;;;;;;;;5075646;28;20190;-76
2023/10/14 03:53:05;;;;;;;7.43;5.95;;;;;;;;;;5075428;28;20569;-76
2023/10/14 03:55:33;;;;;;;7.90;5.85;;;;;;;;;;5074958;28;20211;-76
2023/10/14 03:58:03;;;;;;;7.30;6.55;;;;;;;;;;5056693;28;20221;-76
2023/10/14 04:00:37;;;;;;;6.35;5.75;;;;;;;;;;5074920;28;20272;-76
2023/10/14 04:03:11;;;;;;;10.90;6.15;;;;;;;;;;5075072;28;20216;-76
2023/10/14 04:05:52;;;;;;;10.73;5.95;;;;;;;;;;5075220;28;20204;-77
2023/10/14 04:08:30;;;;;;;9.50;6.47;;;;;;;;;;5074605;28;20257;-77
2023/10/14 04:11:16;;;;;;;10.70;6.80;;;;;;;;;;5067998;28;20209;-76
2023/10/14 04:14:08;;;;;;;8.45;6.03;;;;;;;;;;5075455;28;20201;-77
2023/10/14 04:19:27;;;;;;;8.40;6.20;;;;;;;;;;5093254;28;20314;-76
2023/10/14 04:22:03;;;;;;;12.43;6.43;;;;;;;;;;5108988;28;20192;-75
2023/10/14 04:30:12;;;;;;;11.27;5.53;;;;;;;;;;5071007;28;20672;-76
2023/10/14 04:33:34;;;;;;;6.70;4.63;;;;;;;;;;5094728;28;20424;-76
2023/10/14 04:35:32;;;;;;;9.80;5.20;;;;;;;;;;5102349;28;20208;-75
2023/10/14 04:38:13;;;;;;;7.53;4.50;;;;;;;;;;5130615;27;20302;-75
2023/10/14 04:40:45;;;;;;;9.27;5.22;;;;;;;;;;5090367;28;20215;-75
2023/10/14 04:43:37;;;;;;;12.77;4.88;;;;;;;;;;5094017;28;20268;-76
2023/10/14 04:48:59;;;;;;;6.38;4.47;;;;;;;;;;5135489;27;20302;-75
2023/10/14 04:51:36;;;;;;;8.73;4.68;;;;;;;;;;5135537;27;20237;-76
2023/10/14 04:54:09;;;;;;;6.65;5.00;;;;;;;;;;5125610;27;20543;-75
2023/10/14 04:56:37;;;;;;;6.60;4.43;;;;;;;;;;5096878;28;20793;-75
2023/10/14 04:59:05;;;;;;;7.13;4.65;;;;;;;;;;5096139;28;20231;-74
2023/10/14 05:01:33;;;;;;;10.95;4.80;;;;;;;;;;5114134;28;20203;-76
2023/10/14 05:04:00;;;;;;;6.50;4.22;;;;;;;;;;5114078;28;20215;-76
2023/10/14 05:06:38;;;;;;;7.57;4.97;;;;;;;;;;5096239;28;20242;-76
2023/10/14 05:09:09;;;;;;;6.30;4.90;;;;;;;;;;5116022;27;20226;-76
2023/10/14 05:11:37;;;;;;;7.32;4.75;;;;;;;;;;5128498;27;20223;-76
2023/10/14 05:14:14;;;;;;;8.55;5.05;;;;;;;;;;5097059;28;20246;-79
2023/10/14 05:19:30;;;;;;;7.80;5.10;;;;;;;;;;5097085;28;20227;-79
2023/10/14 05:22:05;;;;;;;6.38;4.93;;;;;;;;;;5097842;28;20311;-79
2023/10/14 05:24:32;;;;;;;9.93;5.57;;;;;;;;;;5100357;28;20211;-79
2023/10/14 05:27:00;;;;;;;9.38;5.40;;;;;;;;;;5100096;27;20208;-79
2023/10/14 05:29:28;;;;;;;8.65;5.65;;;;;;;;;;5078729;28;20215;-79
2023/10/14 05:32:10;;;;;;;8.48;5.10;;;;;;;;;;5094476;28;20220;-80
2023/10/14 05:34:42;;;;;;;7.43;5.25;;;;;;;;;;5093919;27;20205;-80
2023/10/14 05:37:14;;;;;;;9.30;5.82;;;;;;;;;;5099897;28;20192;-78
2023/10/14 05:39:41;;;;;;;7.82;5.45;;;;;;;;;;5083463;28;20255;-78
2023/10/14 05:42:16;;;;;;;7.32;4.95;;;;;;;;;;5094995;28;20209;-79
2023/10/14 05:44:47;;;;;;;10.20;5.45;;;;;;;;;;5103959;28;20369;-78
2023/10/14 05:47:15;;;;;;;8.48;5.70;;;;;;;;;;5099424;28;20651;-79
2023/10/14 05:49:43;;;;;;;8.73;5.80;;;;;;;;;;5108491;28;20204;-79
2023/10/14 05:52:14;;;;;;;7.97;5.32;;;;;;;;;;5093122;28;20225;-78
2023/10/14 05:54:42;;;;;;;6.07;5.10;;;;;;;;;;5086491;28;20269;-80
2023/10/14 05:57:09;;;;;;;9.45;4.93;;;;;;;;;;5083527;28;20230;-79
2023/10/14 05:59:37;;;;;;;6.30;4.45;;;;;;;;;;5086569;28;20291;-79
2023/10/14 06:02:07;;;;;;;6.50;4.93;;;;;;;;;;5085347;28;20200;-79
2023/10/14 06:04:41;;;;;;;8.88;5.22;;;;;;;;;;5100009;27;20304;-78
2023/10/14 06:07:11;;;;;;;10.38;5.03;;;;;;;;;;5103051;27;20237;-78
2023/10/14 06:09:39;;;;;;;9.05;5.40;;;;;;;;;;5094143;28;20204;-78
2023/10/14 06:12:12;;;;;;;9.75;4.90;;;;;;;;;;5092557;27;20384;-77
2023/10/14 06:14:43;;;;;;;7.35;5.22;;;;;;;;;;5081952;28;20207;-77
2023/10/14 06:17:11;;;;;;;8.45;4.53;;;;;;;;;;5106257;27;20212;-79
2023/10/14 06:19:39;;;;;;;8.32;4.80;;;;;;;;;;5098951;28;20197;-76
2023/10/14 06:22:07;;;;;;;8.55;4.80;;;;;;;;;;5081324;28;20211;-75
2023/10/14 06:24:35;;;;;;;7.00;4.78;;;;;;;;;;5101890;28;20208;-78
2023/10/14 06:27:09;;;;;;;7.13;4.97;;;;;;;;;;5093403;28;20234;-79
2023/10/14 06:29:37;;;;;;;6.13;4.50;;;;;;;;;;5086413;27;20231;-79
2023/10/14 06:32:06;;;;;;;5.55;4.47;;;;;;;;;;5085804;28;20257;-77
2023/10/14 06:34:57;;;;;;;8.82;4.53;;;;;;;;;;5102940;28;20239;-78
2023/10/14 06:37:26;;;;;;;7.20;4.28;;;;;;;;;;5093587;28;20229;-78
2023/10/14 06:39:56;;;;;;;8.20;4.43;;;;;;;;;;5085699;27;20576;-78
2023/10/14 06:42:26;;;;;;;5.93;4.35;;;;;;;;;;5096389;27;20204;-78
2023/10/14 06:44:54;;;;;;;5.25;4.47;;;;;;;;;;5076562;28;20235;-77
2023/10/14 06:47:22;;;;;;;6.32;5.03;;;;;;;;;;5090079;28;20273;-78
2023/10/14 06:49:50;;;;;;;6.38;4.35;;;;;;;;;;5096976;28;20746;-78
2023/10/14 06:52:18;;;;;;;6.38;4.78;;;;;;;;;;5086375;28;20251;-80
2023/10/14 06:54:46;;;;;;;7.32;4.68;;;;;;;;;;5099059;28;20204;-77
2023/10/14 06:57:14;;;;;;;6.68;4.72;;;;;;;;;;5100229;28;20206;-78
2023/10/14 06:59:42;;;;;;;8.02;4.70;;;;;;;;;;5091281;28;20201;-78
2023/10/14 07:02:10;;;;;;;7.53;4.50;;;;;;;;;;5089801;28;20553;-79
2023/10/14 07:04:40;;;;;;;6.15;4.47;;;;;;;;;;5065882;28;20211;-79
2023/10/14 07:07:09;;;;;;;7.93;4.90;;;;;;;;;;5090797;28;21371;-79
2023/10/14 07:09:39;;;;;;;9.18;5.03;;;;;;;;;;5092452;28;20200;-78
2023/10/14 07:12:15;;;;;;;8.43;4.68;;;;;;;;;;5088772;28;21069;-79
2023/10/14 07:14:44;;;;;;;6.40;4.72;;;;;;;;;;5089009;28;20311;-79
2023/10/14 07:17:17;;;;;;;6.53;4.57;;;;;;;;;;5098614;28;20227;-79
2023/10/14 07:19:46;;;;;;;6.45;4.53;;;;;;;;;;5091417;28;20204;-77
2023/10/14 07:22:18;;;;;;;5.57;4.38;;;;;;;;;;5093368;27;20200;-77
2023/10/14 07:24:45;;;;;;;6.07;4.38;;;;;;;;;;5095743;27;20209;-77
2023/10/14 07:27:13;;;;;;;8.95;4.22;;;;;;;;;;5095821;28;20587;-79
2023/10/14 07:29:45;;;;;;;9.02;4.18;;;;;;;;;;5104667;28;20205;-78
2023/10/14 07:32:16;;;;;;;10.13;4.63;;;;;;;;;;5082509;28;20238;-79
2023/10/14 07:34:43;;;;;;;9.75;4.50;;;;;;;;;;5067734;28;20712;-78
2023/10/14 07:37:13;;;;;;;6.88;4.40;;;;;;;;;;5094297;28;20260;-78
2023/10/14 07:39:40;;;;;;;6.53;3.90;;;;;;;;;;5096875;28;20659;-78
2023/10/14 07:42:13;;;;;;;6.97;4.05;;;;;;;;;;5096637;28;20682;-80
2023/10/14 07:44:41;;;;;;;5.30;3.60;;;;;;;;;;5070003;28;20208;-78
2023/10/14 07:47:10;;;;;;;5.60;4.15;;;;;;;;;;5093514;28;20205;-79
2023/10/14 07:49:38;;;;;;;3.90;3.50;;;;;;;;;;5090741;28;20806;-77
2023/10/14 07:52:14;;;;;;;6.18;3.83;;;;;;;;;;5094548;28;20296;-78
2023/10/14 07:54:42;;;;;;;7.88;3.70;;;;;;;;;;5103608;28;20197;-78
2023/10/14 07:57:12;;;;;;;7.57;3.60;;;;;;;;;;5098289;28;20885;-79
2023/10/14 07:59:41;;;;;;;5.20;3.67;;;;;;;;;;5084258;28;20197;-79
2023/10/14 08:02:10;;;;;;;5.07;3.00;;;;;;;;;;5077029;28;20357;-77
2023/10/14 08:04:37;;;;;;;4.90;3.17;;;;;;;;;;5084094;28;20593;-77
2023/10/14 08:07:07;;;;;;;4.13;3.33;;;;;;;;;;5093193;28;20213;-77
2023/10/14 08:09:39;;;;;;;5.10;3.90;;;;;;;;;;5100404;28;20269;-77
2023/10/14 08:12:06;;;;;;;5.22;4.43;;;;;;;;;;5088864;28;20196;-77
2023/10/14 08:14:34;;;;;;;5.60;4.60;;;;;;;;;;5082279;28;20268;-78
2023/10/14 08:17:01;;;;;;;7.00;3.92;;;;;;;;;;5094399;28;20557;-78
2023/10/14 08:19:28;;;;;;;7.72;4.43;;;;;;;;;;5072465;28;20208;-78
2023/10/14 08:21:56;;;;;;;7.35;4.45;;;;;;;;;;5091629;28;20193;-78
2023/10/14 08:24:23;;;;;;;7.78;4.97;;;;;;;;;;5095924;27;20258;-80
2023/10/14 08:26:50;;;;;;;6.68;4.40;;;;;;;;;;5100789;28;20205;-78
2023/10/14 08:29:20;;;;;;;9.93;5.22;;;;;;;;;;5080623;28;20212;-78
2023/10/14 08:31:53;;;;;;;7.28;4.57;;;;;;;;;;5098512;28;20242;-77
2023/10/14 08:34:25;;;;;;;9.50;5.05;;;;;;;;;;5097669;27;20793;-79
2023/10/14 08:36:52;;;;;;;7.18;4.75;;;;;;;;;;5104284;28;20205;-78
2023/10/14 08:39:23;;;;;;;6.60;4.90;;;;;;;;;;5077868;28;20221;-81
2023/10/14 08:41:54;;;;;;;8.20;4.90;;;;;;;;;;5091347;27;20204;-79
2023/10/14 08:44:24;;;;;;;8.27;4.90;;;;;;;;;;5094157;28;20212;-78
2023/10/14 08:46:52;;;;;;;5.95;4.57;;;;;;;;;;5088921;28;20346;-79
2023/10/14 08:49:23;;;;;;;7.25;4.80;;;;;;;;;;5085980;28;20914;-78
2023/10/14 08:51:51;;;;;;;9.48;5.05;;;;;;;;;;5080246;28;20209;-78
2023/10/14 08:54:24;;;;;;;8.15;5.07;;;;;;;;;;5102866;27;20232;-78
2023/10/14 08:56:52;;;;;;;9.45;4.55;;;;;;;;;;5096420;28;20200;-80
2023/10/14 08:59:21;;;;;;;9.27;5.05;;;;;;;;;;5087521;28;20232;-78
2023/10/14 09:01:54;;;;;;;7.07;4.85;;;;;;;;;;5072362;28;20594;-80
2023/10/14 09:04:28;;;;;;;10.60;4.80;;;;;;;;;;5087654;28;20296;-78
2023/10/14 09:07:02;;;;;;;8.55;5.70;;;;;;;;;;5091197;28;20250;-80
2023/10/14 09:09:32;;;;;;;6.50;4.80;;;;;;;;;;5097979;27;20202;-80
2023/10/14 09:12:12;;;;;;;7.68;4.97;;;;;;;;;;5094743;28;20201;-76
2023/10/14 09:14:40;;;;;;;7.68;4.82;;;;;;;;;;5087879;28;20558;-77
2023/10/14 09:17:09;;;;;;;7.93;4.43;;;;;;;;;;5113775;28;20206;-76
2023/10/14 09:19:43;;;;;;;8.30;5.07;;;;;;;;;;5114820;28;20604;-76
2023/10/14 09:22:18;;;;;;;9.88;4.60;;;;;;;;;;5114234;28;20648;-77
2023/10/14 09:24:48;;;;;;;5.85;4.30;;;;;;;;;;5113992;28;20663;-76
2023/10/14 09:27:17;;;;;;;9.95;5.63;;;;;;;;;;5113344;28;20191;-75
2023/10/14 09:30:04;;;;;;;9.95;5.35;;;;;;;;;;5113803;28;20204;-76
2023/10/14 09:32:36;;;;;;;10.13;5.68;;;;;;;;;;5118489;27;20547;-77
2023/10/14 09:35:04;;;;;;;8.73;5.40;;;;;;;;;;5118622;27;20249;-76
2023/10/14 09:37:31;;;;;;;9.88;5.38;;;;;;;;;;5102244;28;20223;-75
2023/10/14 09:40:06;;;;;;;7.72;4.80;;;;;;;;;;5095123;27;20770;-79
2023/10/14 09:42:34;;;;;;;9.35;4.85;;;;;;;;;;5098977;27;20218;-78
2023/10/14 09:45:10;;;;;;;10.25;5.78;;;;;;;;;;5100936;27;21627;-80
2023/10/14 09:47:45;;;;;;;7.95;4.40;;;;;;;;;;5089672;28;20216;-78
2023/10/14 09:50:14;;;;;;;6.53;4.43;;;;;;;;;;5087083;27;20234;-77
2023/10/14 09:52:42;;;;;;;10.63;4.75;;;;;;;;;;5106213;27;20251;-75
2023/10/14 09:55:13;;;;;;;7.90;5.10;;;;;;;;;;5090655;28;20275;-74
2023/10/14 09:57:53;;;;;;;8.70;5.50;;;;;;;;;;5084493;28;20312;-78
2023/10/14 10:00:21;;;;;;;8.57;5.55;;;;;;;;;;5087092;28;20196;-75
2023/10/14 10:02:50;;;;;;;8.10;5.35;;;;;;;;;;5098410;28;20215;-75
2023/10/14 10:05:26;;;;;;;8.43;4.93;;;;;;;;;;5083689;28;20507;-74
2023/10/14 10:08:24;;;;;;;13.23;5.82;;;;;;;;;;5108683;28;20292;-79
2023/10/14 10:10:52;;;;;;;8.55;5.70;;;;;;;;;;5066152;28;20208;-75
2023/10/14 10:16:42;;;;;;;9.85;5.28;;;;;;;;;;5096888;28;20226;-77
2023/10/14 10:19:13;;;;;;;6.15;4.78;;;;;;;;;;5106106;28;20707;-76
2023/10/14 10:22:01;;;;;;;6.55;4.68;;;;;;;;;;5100595;28;20196;-74
2023/10/14 10:24:39;;;;;;;7.15;4.68;;;;;;;;;;5094597;27;20213;-78
2023/10/14 10:30:25;;;;;;;10.35;6.32;;;;;;;;;;5104059;27;20212;-77
2023/10/14 10:36:21;;;;;;;6.68;4.80;;;;;;;;;;5094373;27;20217;-77
2023/10/14 10:38:53;;;;;;;7.18;4.75;;;;;;;;;;5075914;28;20881;-77
2023/10/14 10:44:43;;;;;;;5.78;5.15;;;;;;;;;;5081417;28;21922;-78
2023/10/14 10:47:14;;;;;;;8.38;5.65;;;;;;;;;;5094622;27;20204;-77
2023/10/14 10:49:56;;;;;;;5.05;4.55;;;;;;;;;;5092260;27;20204;-78
2023/10/14 10:52:24;;;;;;;6.18;4.95;;;;;;;;;;5095121;27;20231;-75
2023/10/14 10:54:56;;;;;;;8.00;5.28;;;;;;;;;;5107076;27;20220;-76
2023/10/14 10:57:33;;;;;;;9.95;5.40;;;;;;;;;;5082424;28;20255;-77
2023/10/14 11:00:09;;;;;;;7.85;5.15;;;;;;;;;;5095778;28;20671;-77
2023/10/14 11:02:50;;;;;;;6.45;4.35;;;;;;;;;;5097299;28;20668;-77
2023/10/14 11:05:21;;;;;;;7.78;4.38;;;;;;;;;;5089661;28;20300;-78
2023/10/14 11:07:49;;;;;;;8.23;4.55;;;;;;;;;;5082518;28;20266;-77
2023/10/14 11:10:17;;;;;;;4.20;3.80;;;;;;;;;;5097563;27;20667;-75
2023/10/14 11:16:31;;;;;;;4.40;3.42;;;;;;;;;;5090678;28;20248;-76
2023/10/14 11:19:07;;;;;;;4.82;3.58;;;;;;;;;;5092381;28;20229;-76
2023/10/14 11:21:40;;;;;;;3.47;3.17;;;;;;;;;;5088459;28;20203;-77
2023/10/14 11:24:18;;;;;;;5.20;3.50;;;;;;;;;;5072125;28;20308;-79
2023/10/14 11:27:01;;;;;;;3.78;3.28;;;;;;;;;;5092418;28;20702;-79
2023/10/14 11:33:17;;;;;;;4.72;2.63;;;;;;;;;;5094368;28;20760;-76
2023/10/14 11:36:17;;;;;;;5.75;3.10;;;;;;;;;;5072641;28;20203;-78
2023/10/14 11:38:47;;;;;;;1.88;1.30;;;;;;;;;;5090854;28;20228;-78
2023/10/14 11:41:15;;;;;;;3.10;0.75;;;;;;;;;;5089539;28;20204;-78
2023/10/14 11:43:44;;;;;;;1.33;0.90;;;;;;;;;;5094098;28;20699;-78
2023/10/14 11:46:11;;;;;;;4.30;1.07;;;;;;;;;;5092062;28;20205;-78
2023/10/14 11:48:39;;;;;;;0.60;0.50;;;;;;;;;;5093410;28;20666;-79
2023/10/14 11:51:11;;;;;;;2.07;0.47;;;;;;;;;;5092647;28;20203;-77
2023/10/14 11:53:50;;;;;;;0.30;0.30;;;;;;;;;;5088466;28;20672;-80
2023/10/14 11:56:18;;;;;;;0.73;0.30;;;;;;;;;;5097701;28;20536;-78
2023/10/14 12:05:39;;;;;;;1.00;1.00;;;;;;;;;;5092170;28;20251;-76
2023/10/14 12:08:10;;;;;;;0.77;0.77;;;;;;;;;;5090465;27;20227;-77
2023/10/14 12:10:37;;;;;;;0.93;0.93;;;;;;;;;;5105688;27;20219;-76
2023/10/14 12:13:05;;;;;;;0.93;0.57;;;;;;;;;;5101549;27;20669;-78
2023/10/14 12:22:17;;;;;;;1.63;1.40;;;;;;;;;;5101566;27;20188;-76
2023/10/14 12:24:47;;;;;;;1.20;0.60;;;;;;;;;;5062376;28;20237;-78
2023/10/14 12:27:15;;;;;;;0.60;0.60;;;;;;;;;;5064946;28;20208;-77
2023/10/14 12:29:42;;;;;;;0.67;0.67;;;;;;;;;;5062949;28;20210;-78
2023/10/14 12:32:14;;;;;;;0.70;0.70;;;;;;;;;;5079112;28;20200;-79
2023/10/14 12:34:46;;;;;;;1.20;0.70;;;;;;;;;;5075783;28;20224;-78
2023/10/14 12:37:18;;;;;;;1.43;0.67;;;;;;;;;;5077913;28;21523;-79
2023/10/14 12:39:53;;;;;;;5.13;2.87;;;;;;;;;;5073285;28;20201;-79
2023/10/14 12:42:23;;;;;;;9.40;4.70;;;;;;;;;;5083113;28;20217;-76
2023/10/14 12:44:55;;;;;;;6.73;3.00;;;;;;;;;;5098205;28;20437;-78
2023/10/14 12:47:24;;;;;;;1.40;1.30;;;;;;;;;;5082360;28;20225;-78
2023/10/14 12:49:51;;;;;;;1.10;1.10;;;;;;;;;;5075308;28;20224;-78
2023/10/14 12:52:19;;;;;;;1.13;1.13;;;;;;;;;;5068726;28;20206;-77
2023/10/14 12:54:51;;;;;;;1.23;1.23;;;;;;;;;;5066321;28;20293;-78
2023/10/14 12:57:19;;;;;;;0.60;0.60;;;;;;;;;;5069399;28;20205;-76
2023/10/14 12:59:54;;;;;;;0.57;0.57;;;;;;;;;;5052495;28;20215;-78
2023/10/14 13:02:21;;;;;;;0.40;0.40;;;;;;;;;;5076551;28;20205;-78
2023/10/14 13:04:48;;;;;;;1.27;0.50;;;;;;;;;;5067998;28;20722;-76
2023/10/14 13:07:16;;;;;;;0.40;0.40;;;;;;;;;;5069064;28;20204;-77
2023/10/14 13:09:43;;;;;;;0.50;0.50;;;;;;;;;;5067854;28;20202;-76
2023/10/14 13:12:17;;;;;;;1.70;1.30;;;;;;;;;;5057155;28;20206;-78
2023/10/14 13:14:46;;;;;;;0.70;0.70;;;;;;;;;;5068068;28;20271;-78
2023/10/14 13:20:37;;;;;;;1.73;1.63;;;;;;;;;;5063311;28;20184;-80
2023/10/14 13:23:12;;;;;;;1.43;1.33;;;;;;;;;;5074232;28;20217;-77
2023/10/14 13:26:09;;;;;;;5.80;3.43;;;;;;;;;;5075133;28;20197;-76
2023/10/14 13:28:37;;;;;;;2.93;2.47;;;;;;;;;;5078510;28;20305;-75
2023/10/14 13:31:12;;;;;;;3.80;2.80;;;;;;;;;;5070507;28;20196;-78
2023/10/14 13:33:55;;;;;;;2.40;2.20;;;;;;;;;;5048221;28;20233;-77
2023/10/14 13:36:23;;;;;;;1.80;1.70;;;;;;;;;;5075219;28;20220;-77
2023/10/14 13:38:50;;;;;;;1.20;1.20;;;;;;;;;;5077150;28;20228;-78
2023/10/14 13:41:17;;;;;;;2.03;1.93;;;;;;;;;;5092044;28;20206;-78
2023/10/14 13:43:46;;;;;;;0.50;0.50;;;;;;;;;;5075095;28;20202;-77
2023/10/14 13:46:14;;;;;;;0.60;0.60;;;;;;;;;;5076004;28;20285;-77
2023/10/14 13:48:43;;;;;;;1.27;0.50;;;;;;;;;;5070848;28;20221;-77
2023/10/14 13:51:11;;;;;;;1.63;1.40;;;;;;;;;;5074131;28;20209;-78
2023/10/14 13:53:44;;;;;;;1.27;1.17;;;;;;;;;;5076903;28;20647;-79
2023/10/14 13:56:12;;;;;;;0.90;0.90;;;;;;;;;;5078986;28;20197;-78
2023/10/14 13:58:39;;;;;;;1.30;1.20;;;;;;;;;;5063149;28;20221;-77
2023/10/14 14:01:11;;;;;;;2.67;0.80;;;;;;;;;;5086536;28;20194;-79
2023/10/14 14:03:39;;;;;;;2.40;1.73;;;;;;;;;;5097909;27;20205;-78
2023/10/14 14:06:08;;;;;;;1.00;0.90;;;;;;;;;;5078294;28;20208;-78
2023/10/14 14:08:35;;;;;;;1.27;1.17;;;;;;;;;;5082647;28;20316;-80
2023/10/14 14:11:03;;;;;;;2.17;1.70;;;;;;;;;;5062932;28;20212;-78
2023/10/14 14:13:32;;;;;;;6.63;3.57;;;;;;;;;;5083623;28;20205;-79
2023/10/14 14:16:05;;;;;;;5.87;3.17;;;;;;;;;;5084602;28;20222;-79
2023/10/14 14:18:33;;;;;;;1.17;1.03;;;;;;;;;;5083164;28;20227;-78
2023/10/14 14:21:00;;;;;;;0.93;0.93;;;;;;;;;;5073380;28;20220;-77
2023/10/14 14:23:27;;;;;;;2.87;1.60;;;;;;;;;;5091159;27;20205;-81
2023/10/14 14:25:57;;;;;;;1.63;1.53;;;;;;;;;;5094885;27;20212;-78
2023/10/14 14:28:24;;;;;;;1.30;1.20;;;;;;;;;;5086288;28;20224;-80
2023/10/14 14:30:51;;;;;;;0.90;0.90;;;;;;;;;;5094159;28;20204;-77
2023/10/14 14:33:19;;;;;;;1.27;1.13;;;;;;;;;;5081000;28;20222;-79
2023/10/14 14:35:49;;;;;;;1.93;1.10;;;;;;;;;;5082193;28;20664;-81
2023/10/14 14:38:20;;;;;;;1.43;1.20;;;;;;;;;;5091312;28;20220;-79
2023/10/14 14:40:48;;;;;;;1.93;0.90;;;;;;;;;;5079914;28;20295;-77
2023/10/14 14:43:16;;;;;;;2.43;0.90;;;;;;;;;;5088470;28;20196;-77
2023/10/14 14:45:44;;;;;;;1.40;1.30;;;;;;;;;;5082158;27;20204;-78
2023/10/14 14:48:12;;;;;;;1.27;1.10;;;;;;;;;;5090357;27;20232;-79
2023/10/14 14:50:44;;;;;;;1.47;1.20;;;;;;;;;;5096571;28;20208;-77
2023/10/14 14:53:12;;;;;;;4.20;2.70;;;;;;;;;;5092104;28;20209;-80
2023/10/14 14:55:45;;;;;;;3.50;1.23;;;;;;;;;;5085080;27;20278;-79
2023/10/14 14:58:14;;;;;;;1.87;1.30;;;;;;;;;;5090994;28;20224;-78
2023/10/14 15:00:42;;;;;;;2.37;1.70;;;;;;;;;;5092324;28;20257;-80
2023/10/14 15:03:12;;;;;;;3.17;2.00;;;;;;;;;;5088543;28;20303;-77
2023/10/14 15:05:45;;;;;;;2.83;1.40;;;;;;;;;;5096554;27;20207;-80
2023/10/14 15:08:13;;;;;;;3.73;1.77;;;;;;;;;;5077449;28;20220;-79
2023/10/14 15:10:48;;;;;;;3.87;1.73;;;;;;;;;;5092013;28;20236;-79
2023/10/14 15:13:17;;;;;;;4.83;1.70;;;;;;;;;;5093911;28;20765;-79
2023/10/14 15:15:49;;;;;;;3.77;1.60;;;;;;;;;;5096444;28;20236;-79
2023/10/14 15:18:18;;;;;;;3.60;1.97;;;;;;;;;;5094822;28;20255;-80
2023/10/14 15:20:45;;;;;;;4.43;2.23;;;;;;;;;;5077855;28;20253;-78
2023/10/14 15:23:20;;;;;;;4.97;2.57;;;;;;;;;;5080568;28;20602;-79
2023/10/14 15:25:48;;;;;;;3.30;2.20;;;;;;;;;;5073866;28;20206;-80
2023/10/14 15:28:19;;;;;;;6.03;2.60;;;;;;;;;;5066290;28;20232;-80
2023/10/14 15:30:47;;;;;;;;;;;;;;;;;;5085521;28;20488;-78
2023/10/14 15:33:14;;;;;;;;;;;;;;;;;;5091173;28;25147;-79
2023/10/14 15:35:42;;;;;;;;;;;;;;;;;;5092523;28;25122;-79
2023/10/14 15:38:13;;;;;;;11.07;5.30;;;;;;;;;;5092579;28;20212;-79
2023/10/14 15:40:45;;;;;;;11.23;3.97;;;;;;;;;;5066174;28;20200;-78
2023/10/14 15:43:14;;;;;;;4.57;2.67;;;;;;;;;;5092001;27;20296;-79
2023/10/14 15:45:41;;;;;;;4.47;2.67;;;;;;;;;;5074550;28;20235;-80
2023/10/14 15:48:09;;;;;;;7.53;2.50;;;;;;;;;;5090075;27;20240;-78
2023/10/14 15:50:39;;;;;;;4.83;2.60;;;;;;;;;;5084450;28;20270;-78
2023/10/14 15:53:12;;;;;;;6.17;2.70;;;;;;;;;;5077311;27;20200;-79
2023/10/14 15:55:43;;;;;;;4.57;2.53;;;;;;;;;;5094557;27;20605;-79
2023/10/14 15:58:10;;;;;;;7.83;2.43;;;;;;;;;;5092020;28;20231;-80
2023/10/14 16:00:47;;;;;;;9.57;3.23;;;;;;;;;;5087240;27;20480;-76
2023/10/14 16:03:38;;;;;;;7.30;4.13;;;;;;;;;;5088518;27;20210;-77
2023/10/14 16:06:05;;;;;;;7.67;2.70;;;;;;;;;;5085745;27;20218;-76
2023/10/14 16:08:36;;;;;;;3.73;2.73;;;;;;;;;;5088420;28;20229;-76
2023/10/14 16:11:03;;;;;;;8.03;3.57;;;;;;;;;;5072770;28;20227;-77
2023/10/14 16:13:30;;;;;;;6.33;2.90;;;;;;;;;;5081773;28;20268;-78
2023/10/14 16:15:58;;;;;;;6.67;3.07;;;;;;;;;;5088229;28;20571;-76
2023/10/14 16:18:25;;;;;;;7.50;3.47;;;;;;;;;;5091648;28;20339;-77